Terminal Aerodrome Forecast
Issued by NWS

Home | Current Version | Previous Version | Text Only | Print | Product List | Glossary On
Versions: 1 2 3 4 5 6 7 8 9 10 11 12 13 14 15 16 17 18 19 20 21 22 23 24 25 26 27 28 29 30 31 32 33
876
FTUS46 KLOX 222123 AAB
TAFSBA
TAF AMD
KSBA 222123Z 2221/2318 10014G23KT 1 1/2SM -RA BR OVC018
     FM230300 22012KT P6SM -SHRA OVC015
     FM230800 20008KT P6SM -SHRA OVC050 PROB30 2308/2312 P6SM -TSRA
      BKN050CB=

USA.gov is the U.S. government's official web portal to all federal, state and local government web resources and services.